Time;durP1;ratioP1;P1;durP2;ratioP2;P2;SDS_P1;SDS_P2;PMS_P1;PMS_P2;Temp;Humidity;BMP_temperature;BMP_pressure;BME280_temperature;BME280_humidity;BME280_pressure;Samples;Min_cycle;Max_cycle;Signal;HPM_P1;HPM_P2
2022/07/27 00:01:00;;;;;;;8.27;1.70;;;;;;;18.04;82.52;101510.16;5038852;28;20053;-71
2022/07/27 00:03:27;;;;;;;6.35;1.50;;;;;;;17.97;82.81;101499.06;5033236;28;20457;-71
2022/07/27 00:05:53;;;;;;;7.20;1.40;;;;;;;17.91;84.98;101496.00;5035463;28;20053;-71
2022/07/27 00:08:22;;;;;;;6.47;1.77;;;;;;;17.87;84.18;101495.28;5038444;28;20060;-71
2022/07/27 00:10:50;;;;;;;5.65;1.60;;;;;;;17.84;83.34;101495.31;5033904;28;20163;-71
2022/07/27 00:13:17;;;;;;;8.30;1.58;;;;;;;17.71;83.40;101497.16;5035807;28;20057;-71
2022/07/27 00:15:43;;;;;;;6.85;1.77;;;;;;;17.65;84.57;101498.88;5044827;28;20045;-71
2022/07/27 00:18:10;;;;;;;4.07;1.40;;;;;;;17.67;85.08;101502.03;5043583;28;20044;-71
2022/07/27 00:20:38;;;;;;;8.65;1.60;;;;;;;17.67;85.55;101500.03;5033948;28;20871;-73
2022/07/27 00:23:05;;;;;;;5.53;1.63;;;;;;;17.67;86.09;101496.44;5046788;28;20049;-71
2022/07/27 00:25:31;;;;;;;5.45;1.42;;;;;;;17.69;87.00;101505.22;5040170;28;20078;-71
2022/07/27 00:27:58;;;;;;;5.50;1.85;;;;;;;17.70;87.42;101506.78;5032042;28;20052;-71
2022/07/27 00:30:25;;;;;;;5.68;1.80;;;;;;;17.66;87.21;101501.22;5037324;28;20935;-71
2022/07/27 00:32:52;;;;;;;7.25;1.55;;;;;;;17.64;87.83;101502.88;5040661;28;20048;-71
2022/07/27 00:35:18;;;;;;;3.40;1.25;;;;;;;17.65;88.08;101507.28;5041262;28;20059;-71
2022/07/27 00:37:45;;;;;;;8.27;1.67;;;;;;;17.64;88.16;101506.47;5039058;28;20390;-71
2022/07/27 00:40:12;;;;;;;6.75;1.50;;;;;;;17.64;89.43;101508.47;5043806;28;20045;-72
2022/07/27 00:42:38;;;;;;;6.20;1.65;;;;;;;17.61;88.94;101514.94;5034021;28;20067;-72
2022/07/27 00:45:06;;;;;;;4.68;1.55;;;;;;;17.58;90.15;101508.19;5036893;28;20790;-72
2022/07/27 00:47:32;;;;;;;5.07;1.30;;;;;;;17.52;89.95;101507.06;5043546;28;20842;-73
2022/07/27 00:49:59;;;;;;;13.70;2.15;;;;;;;17.47;89.61;101512.38;5044162;28;20151;-72
2022/07/27 00:52:27;;;;;;;10.18;1.80;;;;;;;17.45;90.69;101512.03;5047435;28;20056;-71
2022/07/27 00:54:54;;;;;;;6.10;1.48;;;;;;;17.46;91.60;101513.59;5039379;28;20051;-72
2022/07/27 00:57:22;;;;;;;8.25;1.70;;;;;;;17.41;91.02;101509.25;5048457;28;20159;-72
2022/07/27 00:59:48;;;;;;;5.22;1.60;;;;;;;17.39;91.35;101517.25;5046969;28;20059;-71
2022/07/27 01:02:15;;;;;;;9.20;1.83;;;;;;;17.29;92.28;101514.66;5039780;28;20159;-71
2022/07/27 01:04:45;;;;;;;8.07;3.05;;;;;;;17.26;92.46;101507.91;5044373;28;20155;-72
2022/07/27 01:07:13;;;;;;;6.65;1.85;;;;;;;17.10;93.96;101499.34;5039105;28;20045;-71
2022/07/27 01:09:56;;;;;;;5.60;1.65;;;;;;;16.97;96.08;101503.94;5038650;28;20048;-71
2022/07/27 01:12:31;;;;;;;8.23;1.75;;;;;;;16.90;95.76;101508.84;5034343;28;20556;-71
2022/07/27 01:14:58;;;;;;;7.32;2.08;;;;;;;16.88;97.07;101506.47;5045882;28;20094;-70
2022/07/27 01:17:29;;;;;;;7.40;1.88;;;;;;;16.84;97.01;101518.94;5039830;28;20160;-71
2022/07/27 01:19:57;;;;;;;10.75;1.90;;;;;;;16.75;98.38;101518.66;5039251;28;20083;-70
2022/07/27 01:22:23;;;;;;;8.18;2.20;;;;;;;16.65;98.66;101508.41;5036200;28;20899;-71
2022/07/27 01:24:50;;;;;;;5.70;2.00;;;;;;;16.59;100.00;101507.28;5038443;28;20059;-70
2022/07/27 01:27:16;;;;;;;5.70;1.70;;;;;;;16.57;99.71;101516.09;5037962;28;20593;-70
2022/07/27 01:29:43;;;;;;;8.50;2.20;;;;;;;16.57;100.00;101506.94;5038247;28;20040;-71
2022/07/27 01:32:09;;;;;;;12.57;2.45;;;;;;;16.59;100.00;101510.06;5047806;28;20048;-71
2022/07/27 01:34:36;;;;;;;9.15;2.17;;;;;;;16.58;100.00;101514.91;5037722;28;20052;-71
2022/07/27 01:37:04;;;;;;;7.20;2.08;;;;;;;16.53;100.00;101512.53;5046718;28;20052;-70
2022/07/27 01:39:31;;;;;;;6.68;2.00;;;;;;;16.50;100.00;101512.59;5053629;28;20255;-70
2022/07/27 01:41:58;;;;;;;5.90;1.92;;;;;;;16.38;100.00;101504.72;5054136;28;20162;-69
2022/07/27 01:44:24;;;;;;;10.57;2.53;;;;;;;16.35;100.00;101509.16;5056108;28;20089;-69
2022/07/27 01:46:51;;;;;;;9.23;1.73;;;;;;;16.27;100.00;101507.66;5062089;28;20496;-70
2022/07/27 01:49:18;;;;;;;5.90;1.67;;;;;;;16.25;100.00;101507.28;5061901;28;20048;-70
2022/07/27 01:51:44;;;;;;;6.57;2.17;;;;;;;16.24;100.00;101504.91;5050206;28;20068;-69
2022/07/27 01:54:11;;;;;;;8.00;3.20;;;;;;;16.22;100.00;101498.94;5063859;28;20052;-70
2022/07/27 01:56:38;;;;;;;6.85;2.30;;;;;;;16.16;100.00;101514.59;5067340;28;20160;-71
2022/07/27 01:59:04;;;;;;;6.53;2.72;;;;;;;16.10;100.00;101511.44;5063460;28;20044;-70
2022/07/27 02:01:31;;;;;;;8.27;2.88;;;;;;;16.07;100.00;101503.13;5057636;28;20072;-69
2022/07/27 02:03:57;;;;;;;10.05;2.50;;;;;;;16.02;100.00;101497.97;5065245;28;20157;-70
2022/07/27 02:06:24;;;;;;;10.30;2.60;;;;;;;15.99;100.00;101499.59;5064590;28;20059;-70
2022/07/27 02:08:51;;;;;;;12.15;2.67;;;;;;;15.93;100.00;101495.66;5060673;28;20076;-71
2022/07/27 02:14:02;;;;;;;11.20;2.83;;;;;;;15.88;100.00;101500.91;5061669;28;20056;-71
2022/07/27 02:16:29;;;;;;;13.75;3.28;;;;;;;15.92;100.00;101504.47;5066685;28;20135;-72
2022/07/27 02:18:56;;;;;;;13.40;3.72;;;;;;;15.96;100.00;101499.66;5064538;28;20056;-71
2022/07/27 02:21:22;;;;;;;10.57;2.20;;;;;;;15.98;100.00;101502.81;5059655;28;20044;-71
2022/07/27 02:23:49;;;;;;;8.90;2.40;;;;;;;16.01;100.00;101507.56;5059606;28;20081;-72
2022/07/27 02:26:16;;;;;;;5.97;2.15;;;;;;;16.01;100.00;101496.41;5059964;28;20079;-71
2022/07/27 02:28:42;;;;;;;6.47;2.22;;;;;;;16.02;100.00;101504.34;5067938;28;20132;-71
2022/07/27 02:31:09;;;;;;;9.70;2.20;;;;;;;16.00;100.00;101505.97;5060143;28;20071;-72
2022/07/27 02:33:36;;;;;;;5.68;2.22;;;;;;;15.97;100.00;101501.22;5060764;28;20145;-71
2022/07/27 02:36:02;;;;;;;10.77;2.72;;;;;;;15.93;100.00;101495.66;5055437;28;20448;-71
2022/07/27 02:38:29;;;;;;;7.28;2.47;;;;;;;15.91;100.00;101500.09;5062235;28;20052;-72
2022/07/27 02:40:56;;;;;;;7.88;2.72;;;;;;;15.86;100.00;101504.13;5064767;28;20048;-72
2022/07/27 02:43:22;;;;;;;7.90;2.88;;;;;;;15.86;100.00;101506.13;5056324;28;20135;-71
2022/07/27 02:45:50;;;;;;;10.40;2.13;;;;;;;15.88;100.00;101506.50;5059409;28;20076;-71
2022/07/27 02:48:16;;;;;;;10.32;2.30;;;;;;;15.86;100.00;101506.13;5061860;28;21509;-71
2022/07/27 02:50:43;;;;;;;7.53;2.33;;;;;;;15.84;100.00;101502.97;5066184;28;20127;-71
2022/07/27 02:53:09;;;;;;;4.38;1.98;;;;;;;15.88;100.00;101504.50;5063394;28;20051;-71
2022/07/27 02:55:36;;;;;;;5.75;1.83;;;;;;;15.90;100.00;101509.69;5056511;28;20139;-71
2022/07/27 02:58:02;;;;;;;6.63;2.30;;;;;;;15.90;100.00;101504.09;5058842;28;20044;-72
2022/07/27 03:00:29;;;;;;;9.10;2.03;;;;;;;15.91;100.00;101498.09;5058570;28;20143;-71
2022/07/27 03:02:56;;;;;;;4.78;2.30;;;;;;;15.94;100.00;101504.84;5062809;28;20044;-72
2022/07/27 03:05:22;;;;;;;4.07;1.98;;;;;;;15.98;100.00;101509.19;5064213;28;20179;-70
2022/07/27 03:07:49;;;;;;;8.52;2.55;;;;;;;16.00;100.00;101506.75;5060048;28;20131;-70
2022/07/27 03:10:15;;;;;;;6.38;2.40;;;;;;;15.99;100.00;101512.78;5062207;28;20041;-70
2022/07/27 03:12:43;;;;;;;14.18;3.60;;;;;;;16.00;100.00;101505.97;5057580;28;20080;-70
2022/07/27 03:15:10;;;;;;;7.07;2.42;;;;;;;15.99;100.00;101504.41;5062802;28;20127;-70
2022/07/27 03:17:36;;;;;;;9.07;2.72;;;;;;;15.94;100.00;101508.44;5056828;28;20670;-71
2022/07/27 03:20:03;;;;;;;8.60;2.70;;;;;;;15.90;100.00;101512.47;5066056;28;20497;-70
2022/07/27 03:22:33;;;;;;;12.20;2.85;;;;;;;15.71;100.00;101505.47;5070790;28;20060;-70
2022/07/27 03:25:00;;;;;;;8.73;2.92;;;;;;;15.53;100.00;101511.22;5053119;28;20069;-71
2022/07/27 03:27:27;;;;;;;10.35;3.20;;;;;;;15.52;100.00;101511.63;5056357;28;20560;-71
2022/07/27 03:29:55;;;;;;;7.90;3.10;;;;;;;15.52;100.00;101508.06;5051392;28;20484;-71
2022/07/27 03:32:21;;;;;;;8.25;3.15;;;;;;;15.52;100.00;101503.25;5058003;28;20438;-70
2022/07/27 03:34:48;;;;;;;11.23;3.45;;;;;;;15.50;100.00;101503.66;5064177;28;20058;-70
2022/07/27 03:37:16;;;;;;;8.35;2.88;;;;;;;15.40;100.00;101500.97;5063240;28;20136;-71
2022/07/27 03:39:42;;;;;;;7.03;3.00;;;;;;;15.40;100.00;101514.94;5053664;28;21713;-71
2022/07/27 03:42:09;;;;;;;9.85;2.55;;;;;;;15.42;100.00;101515.28;5056412;28;20414;-71
2022/07/27 03:44:35;;;;;;;9.98;2.88;;;;;;;15.40;100.00;101528.88;5059733;28;20065;-70
2022/07/27 03:47:02;;;;;;;8.27;3.00;;;;;;;15.34;100.00;101525.69;5061184;28;20177;-70
2022/07/27 03:49:29;;;;;;;10.43;3.55;;;;;;;15.33;100.00;101521.31;5060545;28;20054;-70
2022/07/27 03:51:55;;;;;;;7.30;2.65;;;;;;;15.33;100.00;101523.31;5052942;28;20057;-71
2022/07/27 03:54:22;;;;;;;11.27;3.28;;;;;;;15.34;100.00;101525.69;5063725;28;20056;-70
2022/07/27 03:56:48;;;;;;;9.55;3.15;;;;;;;15.30;100.00;101532.50;5060822;28;20552;-70
2022/07/27 03:59:15;;;;;;;10.77;2.72;;;;;;;15.29;100.00;101531.69;5055786;28;20053;-70
2022/07/27 04:01:41;;;;;;;6.88;2.60;;;;;;;15.30;100.00;101533.28;5060730;28;20058;-70
2022/07/27 04:04:08;;;;;;;9.18;3.10;;;;;;;15.30;100.00;101529.72;5059895;28;20071;-70
2022/07/27 04:06:35;;;;;;;7.15;2.80;;;;;;;15.29;100.00;101530.91;5049654;28;20057;-70
2022/07/27 04:09:02;;;;;;;7.03;2.97;;;;;;;15.23;100.00;101536.13;5062977;28;20995;-71
2022/07/27 04:11:39;;;;;;;7.68;2.50;;;;;;;15.21;100.00;101534.94;5061023;28;20425;-71
2022/07/27 04:14:16;;;;;;;8.07;3.47;;;;;;;15.20;100.00;101528.59;5062047;28;20048;-71
2022/07/27 04:16:43;;;;;;;8.57;2.83;;;;;;;15.20;100.00;101531.38;5057509;28;20072;-71
2022/07/27 04:19:09;;;;;;;8.85;3.10;;;;;;;15.18;100.00;101530.19;5062031;28;20052;-71
2022/07/27 04:21:36;;;;;;;6.95;2.92;;;;;;;15.18;100.00;101532.97;5063983;28;20117;-71
2022/07/27 04:24:03;;;;;;;12.40;3.53;;;;;;;15.16;100.00;101538.19;5056267;28;20057;-71
2022/07/27 04:26:30;;;;;;;10.32;3.38;;;;;;;15.12;100.00;101540.22;5061433;28;20049;-72
2022/07/27 04:28:57;;;;;;;12.73;3.60;;;;;;;15.10;100.00;101543.41;5066507;28;20076;-71
2022/07/27 04:31:23;;;;;;;10.18;3.30;;;;;;;15.08;100.00;101545.78;5058748;28;20040;-71
2022/07/27 04:33:50;;;;;;;9.95;2.83;;;;;;;15.08;100.00;101544.97;5057437;28;20048;-71
2022/07/27 04:36:17;;;;;;;12.02;4.07;;;;;;;15.05;100.00;101549.38;5049591;28;20083;-71
2022/07/27 04:38:43;;;;;;;12.40;3.00;;;;;;;15.05;100.00;101552.19;5051710;28;20060;-71
2022/07/27 04:41:10;;;;;;;10.02;3.30;;;;;;;15.08;100.00;101544.97;5058873;28;20490;-71
2022/07/27 04:43:37;;;;;;;10.32;3.42;;;;;;;15.09;100.00;101547.38;5066428;28;20074;-73
2022/07/27 04:46:04;;;;;;;11.05;3.35;;;;;;;15.13;100.00;101548.13;5052809;28;20076;-71
2022/07/27 04:48:32;;;;;;;13.35;3.85;;;;;;;15.16;100.00;101552.13;5049283;28;20045;-70
2022/07/27 04:50:59;;;;;;;8.10;3.13;;;;;;;15.20;100.00;101555.66;5060545;28;20049;-72
2022/07/27 04:53:25;;;;;;;9.60;4.32;;;;;;;15.22;100.00;101554.06;5059828;28;20056;-71
2022/07/27 04:55:52;;;;;;;12.65;3.60;;;;;;;15.26;100.00;101559.63;5054974;28;20053;-71
2022/07/27 04:58:19;;;;;;;13.52;4.13;;;;;;;15.10;100.00;101551.75;5053064;28;20053;-72
2022/07/27 05:00:45;;;;;;;7.95;3.63;;;;;;;15.06;100.00;101548.19;5058038;28;20132;-71
2022/07/27 05:03:12;;;;;;;19.90;4.18;;;;;;;15.12;100.00;101549.34;5059855;28;20059;-71
2022/07/27 05:05:39;;;;;;;13.77;4.40;;;;;;;15.18;100.00;101549.69;5052965;28;20139;-70
2022/07/27 05:08:16;;;;;;;14.80;4.40;;;;;;;15.24;100.00;101557.25;5064317;28;20087;-71
2022/07/27 05:10:43;;;;;;;9.55;4.15;;;;;;;15.23;100.00;101558.41;5057269;28;20056;-71
2022/07/27 05:13:12;;;;;;;11.85;3.72;;;;;;;15.27;100.00;101562.00;5059985;28;20059;-72
2022/07/27 05:15:39;;;;;;;12.60;3.63;;;;;;;15.28;100.00;101562.78;5055388;28;20060;-71
2022/07/27 05:18:21;;;;;;;9.70;4.05;;;;;;;15.28;100.00;101560.78;5058928;28;20059;-70
2022/07/27 05:20:47;;;;;;;15.05;4.22;;;;;;;15.32;100.00;101564.34;5063693;28;20452;-72
2022/07/27 05:23:15;;;;;;;8.90;4.05;;;;;;;15.40;100.00;101565.91;5054927;28;20156;-69
2022/07/27 05:25:42;;;;;;;11.88;4.13;;;;;;;15.49;100.00;101563.44;5063627;28;20475;-70
2022/07/27 05:28:11;;;;;;;11.05;4.07;;;;;;;15.57;100.00;101574.53;5056553;28;20049;-70
2022/07/27 05:30:37;;;;;;;10.15;3.80;;;;;;;15.57;100.00;101573.34;5058601;28;20565;-72
2022/07/27 05:33:04;;;;;;;11.63;4.28;;;;;;;15.64;100.00;101571.69;5055707;28;20044;-72
2022/07/27 05:35:31;;;;;;;18.02;4.57;;;;;;;15.74;100.00;101573.59;5070393;28;20052;-71
2022/07/27 05:37:57;;;;;;;11.18;4.25;;;;;;;15.80;100.00;101577.53;5059742;28;20050;-72
2022/07/27 05:40:25;;;;;;;10.27;5.00;;;;;;;15.89;100.00;101575.09;5062046;28;20555;-71
2022/07/27 05:42:52;;;;;;;15.95;4.97;;;;;;;15.92;100.00;101575.03;5065258;28;20048;-71
2022/07/27 05:45:18;;;;;;;14.63;4.45;;;;;;;15.98;100.00;101580.97;5055912;28;20049;-74
2022/07/27 05:47:45;;;;;;;15.10;4.80;;;;;;;15.99;100.00;101582.56;5057764;28;20044;-72
2022/07/27 05:50:13;;;;;;;8.75;3.60;;;;;;;16.06;100.00;101588.06;5055671;28;20110;-71
2022/07/27 05:52:40;;;;;;;11.70;4.07;;;;;;;16.15;100.00;101586.38;5056774;28;20072;-71
2022/07/27 05:55:08;;;;;;;14.75;4.45;;;;;;;16.21;100.00;101586.72;5053625;28;20152;-71
2022/07/27 05:57:36;;;;;;;13.13;4.95;;;;;;;16.25;100.00;101593.06;5063182;28;20136;-72
2022/07/27 06:00:05;;;;;;;10.02;4.28;;;;;;;16.28;100.00;101595.03;5058088;28;20066;-71
2022/07/27 06:02:31;;;;;;;12.20;4.10;;;;;;;16.39;100.00;101590.09;5065289;28;20110;-71
2022/07/27 06:04:58;;;;;;;14.32;4.93;;;;;;;16.31;100.00;101581.03;5059233;28;20052;-71
2022/07/27 06:10:15;;;;;;;16.35;4.50;;;;;;;16.51;100.00;101596.00;5054474;28;20430;-71
2022/07/27 06:12:44;;;;;;;9.88;3.33;;;;;;;16.58;100.00;101595.91;5052409;28;20068;-71
2022/07/27 06:15:12;;;;;;;9.30;2.88;;;;;;;16.64;100.00;101599.03;5065084;28;20091;-71
2022/07/27 06:17:39;;;;;;;12.50;3.38;;;;;;;16.74;100.00;101600.91;5067641;28;20140;-75
2022/07/27 06:20:08;;;;;;;7.10;2.55;;;;;;;16.81;100.00;101598.03;5064982;28;20107;-71
2022/07/27 06:23:03;;;;;;;6.32;2.58;;;;;;;16.91;100.00;101599.91;5062978;28;20095;-71
2022/07/27 06:25:33;;;;;;;9.40;2.50;;;;;;;17.05;100.00;101594.13;5053366;28;20090;-75
2022/07/27 06:28:05;;;;;;;8.77;2.35;;;;;;;17.13;100.00;101599.19;5066419;28;20048;-74
2022/07/27 06:30:32;;;;;;;8.10;2.58;;;;;;;17.17;100.00;101601.91;5070232;28;20080;-74
2022/07/27 06:32:58;;;;;;;10.52;2.58;;;;;;;17.26;100.00;101600.19;5050796;28;20070;-71
2022/07/27 06:35:25;;;;;;;8.18;1.98;;;;;;;17.29;100.00;101604.16;5053319;28;20055;-75
2022/07/27 06:37:52;;;;;;;8.68;2.28;;;;;;;17.37;100.00;101608.41;5064388;28;20052;-72
2022/07/27 06:40:19;;;;;;;3.58;2.00;;;;;;;17.43;100.00;101598.38;5068737;28;20048;-72
2022/07/27 06:42:46;;;;;;;4.18;1.90;;;;;;;17.49;98.59;101605.09;5051266;28;20053;-71
2022/07/27 06:45:12;;;;;;;5.22;1.60;;;;;;;17.58;98.38;101594.13;5073360;28;20413;-71
2022/07/27 06:47:40;;;;;;;9.80;2.55;;;;;;;17.62;97.09;101603.28;5066052;28;20441;-73
2022/07/27 06:50:19;;;;;;;7.40;2.05;;;;;;;17.69;97.75;101611.56;5052249;28;20049;-71
2022/07/27 06:52:47;;;;;;;9.93;1.85;;;;;;;17.79;96.50;101600.19;5068743;28;20649;-72
2022/07/27 06:55:14;;;;;;;7.82;1.50;;;;;;;17.88;95.47;101602.44;5056696;28;20136;-72
2022/07/27 06:57:41;;;;;;;9.18;1.60;;;;;;;17.93;93.43;101601.97;5055478;28;20047;-74
2022/07/27 07:00:09;;;;;;;8.18;1.70;;;;;;;18.00;92.89;101599.03;5056606;28;20041;-75
2022/07/27 07:02:36;;;;;;;10.05;2.28;;;;;;;18.07;93.57;101598.91;5079937;28;20194;-71
2022/07/27 07:05:02;;;;;;;4.47;1.48;;;;;;;18.08;92.39;101599.72;5061517;28;20142;-74
2022/07/27 07:07:30;;;;;;;10.32;2.00;;;;;;;18.17;91.92;101603.53;5057096;28;20052;-73
2022/07/27 07:09:57;;;;;;;6.32;2.03;;;;;;;18.26;92.66;101617.75;5058427;28;20130;-71
2022/07/27 07:12:24;;;;;;;9.18;1.30;;;;;;;18.35;91.79;101606.00;5050958;28;20095;-68
2022/07/27 07:14:51;;;;;;;5.55;1.60;;;;;;;18.47;90.81;101597.78;5058006;28;20050;-73
2022/07/27 07:17:18;;;;;;;10.65;2.13;;;;;;;18.50;89.89;101596.94;5058914;28;20053;-70
2022/07/27 07:19:45;;;;;;;7.80;2.30;;;;;;;18.63;91.28;101600.66;5056637;28;20127;-74
2022/07/27 07:22:11;;;;;;;10.48;2.15;;;;;;;18.69;90.02;101601.72;5060914;28;20520;-70
2022/07/27 07:24:38;;;;;;;7.32;1.77;;;;;;;18.78;88.76;101601.16;5060209;28;20106;-71
2022/07/27 07:27:05;;;;;;;8.30;1.38;;;;;;;18.89;85.86;101610.94;5055920;28;20094;-71
2022/07/27 07:29:31;;;;;;;5.22;1.45;;;;;;;19.03;83.60;101616.22;5060653;28;20067;-73
2022/07/27 07:31:58;;;;;;;9.85;1.35;;;;;;;19.19;82.54;101613.47;5059135;28;20640;-70
2022/07/27 07:34:24;;;;;;;5.78;0.90;;;;;;;19.25;77.48;101608.97;5061055;28;20048;-70
2022/07/27 07:36:51;;;;;;;10.52;1.52;;;;;;;19.44;79.28;101613.72;5061069;28;20127;-74
2022/07/27 07:39:17;;;;;;;6.72;1.00;;;;;;;19.58;78.53;101610.56;5064437;28;20079;-75
2022/07/27 07:41:44;;;;;;;6.38;1.20;;;;;;;19.73;76.87;101620.25;5056903;28;20037;-71
2022/07/27 07:44:11;;;;;;;7.28;1.58;;;;;;;19.81;76.90;101613.22;5055920;28;20048;-70
2022/07/27 07:46:37;;;;;;;4.78;1.33;;;;;;;19.91;75.79;101603.75;5052326;28;20049;-74
2022/07/27 07:49:09;;;;;;;4.88;1.33;;;;;;;19.95;74.74;101609.28;5056783;28;20045;-71
2022/07/27 07:51:37;;;;;;;5.15;1.23;;;;;;;19.94;68.96;101614.09;5054572;28;20065;-71
2022/07/27 07:54:03;;;;;;;7.90;1.40;;;;;;;20.06;69.41;101613.41;5054685;28;20588;-71
2022/07/27 07:56:30;;;;;;;2.95;0.88;;;;;;;20.13;66.71;101610.44;5057934;28;20055;-71
2022/07/27 07:58:58;;;;;;;4.72;1.00;;;;;;;20.18;65.10;101611.91;5055723;28;20048;-70
2022/07/27 08:01:24;;;;;;;4.95;1.05;;;;;;;20.29;67.59;101618.06;5053385;28;20059;-71
2022/07/27 08:03:51;;;;;;;7.68;2.42;;;;;;;20.33;67.80;101616.72;5052117;28;20051;-66
2022/07/27 08:06:18;;;;;;;6.28;1.20;;;;;;;20.41;68.32;101614.50;5064932;28;20059;-67
2022/07/27 08:08:44;;;;;;;6.72;1.40;;;;;;;20.50;67.34;101619.47;5057455;28;20127;-69
2022/07/27 08:11:11;;;;;;;4.65;1.15;;;;;;;20.50;64.61;101617.47;5061746;28;20075;-70
2022/07/27 08:13:38;;;;;;;5.70;1.20;;;;;;;20.56;64.09;101623.34;5053530;28;20055;-71
2022/07/27 08:16:04;;;;;;;8.68;1.45;;;;;;;20.54;64.25;101622.97;5058529;28;20056;-70
2022/07/27 08:18:31;;;;;;;4.28;1.20;;;;;;;20.63;64.43;101623.13;5052881;28;20048;-70
2022/07/27 08:20:58;;;;;;;5.60;1.80;;;;;;;20.62;62.18;101618.75;5056766;28;20143;-70
2022/07/27 08:23:25;;;;;;;6.53;2.30;;;;;;;20.15;63.98;101613.56;5054777;28;20058;-70
2022/07/27 08:25:52;;;;;;;5.78;2.13;;;;;;;20.28;66.28;101620.06;5054571;28;20514;-70
2022/07/27 08:28:19;;;;;;;7.90;2.47;;;;;;;20.33;66.52;101613.91;5053698;28;20056;-70
2022/07/27 08:30:46;;;;;;;4.90;1.77;;;;;;;20.34;66.63;101623.13;5054740;28;20053;-70
2022/07/27 08:33:15;;;;;;;3.17;1.27;;;;;;;20.33;66.81;101621.53;5058401;28;20052;-71
2022/07/27 08:35:43;;;;;;;7.85;2.10;;;;;;;20.30;67.58;101620.41;5055706;28;20060;-69
2022/07/27 08:38:09;;;;;;;6.25;1.85;;;;;;;20.20;68.59;101624.28;5061925;28;20436;-70
2022/07/27 08:40:37;;;;;;;8.63;1.73;;;;;;;20.19;68.58;101619.88;5050138;28;20053;-70
2022/07/27 08:43:10;;;;;;;6.45;1.40;;;;;;;20.17;67.13;101624.38;5061898;28;20057;-71
2022/07/27 08:45:37;;;;;;;3.80;1.10;;;;;;;19.75;66.25;101629.00;5057776;28;20059;-72
2022/07/27 08:48:04;;;;;;;3.65;1.23;;;;;;;19.86;67.89;101623.94;5053270;28;20599;-71
2022/07/27 08:50:33;;;;;;;7.22;1.55;;;;;;;19.98;67.68;101625.25;5060683;28;20052;-70
2022/07/27 08:53:10;;;;;;;6.93;1.75;;;;;;;20.09;66.76;101620.91;5062625;28;20055;-70
2022/07/27 08:55:38;;;;;;;9.48;1.75;;;;;;;19.96;65.47;101631.31;5056004;28;20106;-73
2022/07/27 08:58:06;;;;;;;7.88;2.00;;;;;;;20.01;67.08;101625.16;5078656;28;21614;-74
2022/07/27 09:00:34;;;;;;;5.47;1.40;;;;;;;20.18;66.81;101617.50;5062489;28;20881;-73
2022/07/27 09:03:01;;;;;;;3.45;1.30;;;;;;;20.30;65.06;101616.81;5059704;28;20041;-73
2022/07/27 09:05:29;;;;;;;11.35;1.52;;;;;;;20.16;62.61;101620.78;5062387;28;20048;-71
2022/07/27 09:08:15;;;;;;;9.15;1.52;;;;;;;20.32;63.25;101617.16;5055680;28;20579;-71
2022/07/27 09:10:42;;;;;;;7.60;1.27;;;;;;;20.60;61.37;101626.81;5048396;28;20057;-68
2022/07/27 09:13:19;;;;;;;7.30;1.52;;;;;;;20.81;59.47;101629.03;5053651;28;20412;-71
2022/07/27 09:15:51;;;;;;;4.90;1.30;;;;;;;20.90;57.22;101632.00;5055287;28;20140;-69
2022/07/27 09:18:39;;;;;;;4.75;1.08;;;;;;;20.80;57.16;101633.09;5058654;28;20055;-74
2022/07/27 09:21:20;;;;;;;2.80;1.00;;;;;;;20.95;56.19;101639.94;5054672;28;20048;-71
2022/07/27 09:23:54;;;;;;;5.15;1.00;;;;;;;21.03;56.41;101635.66;5051132;28;20060;-70
2022/07/27 09:26:27;;;;;;;4.22;1.17;;;;;;;21.20;55.57;101640.78;5050744;28;20091;-69
2022/07/27 09:29:02;;;;;;;5.53;0.90;;;;;;;21.34;55.59;101625.44;5052421;28;20163;-72
2022/07/27 09:31:29;;;;;;;8.85;1.45;;;;;;;21.46;54.52;101633.13;5049968;28;20060;-71
2022/07/27 09:34:00;;;;;;;6.28;1.15;;;;;;;21.33;53.44;101635.16;5060222;28;20578;-74
2022/07/27 09:36:28;;;;;;;3.50;1.08;;;;;;;21.35;52.60;101630.63;5056442;28;20052;-71
2022/07/27 09:39:06;;;;;;;6.35;1.30;;;;;;;21.50;53.14;101628.19;5053338;28;20052;-72
2022/07/27 09:41:39;;;;;;;2.25;1.10;;;;;;;21.66;53.40;101636.47;5052496;28;20041;-74
2022/07/27 09:44:06;;;;;;;5.47;1.67;;;;;;;21.79;53.92;101635.28;5062645;28;20065;-69
2022/07/27 09:46:52;;;;;;;5.30;1.60;;;;;;;21.87;52.77;101624.56;5057129;28;20057;-71
2022/07/27 09:49:32;;;;;;;9.95;2.05;;;;;;;22.09;50.79;101625.41;5058735;28;20088;-71
2022/07/27 09:52:00;;;;;;;6.20;1.38;;;;;;;22.27;49.72;101615.09;5056238;28;20049;-71
2022/07/27 09:54:45;;;;;;;7.90;1.42;;;;;;;22.24;46.97;101615.25;5058526;28;20504;-72
2022/07/27 09:57:12;;;;;;;7.65;2.28;;;;;;;22.21;49.90;101627.44;5054107;28;20149;-70
2022/07/27 09:59:39;;;;;;;5.07;1.27;;;;;;;21.79;48.70;101624.00;5064987;28;20132;-71
2022/07/27 10:02:07;;;;;;;3.35;1.35;;;;;;;22.12;49.64;101627.34;5060769;28;20065;-69
2022/07/27 10:04:34;;;;;;;7.45;1.52;;;;;;;22.08;47.96;101629.50;5060263;28;20048;-71
2022/07/27 10:07:01;;;;;;;3.92;1.13;;;;;;;21.92;48.21;101621.97;5057026;28;20059;-69
2022/07/27 10:09:33;;;;;;;6.07;1.40;;;;;;;22.00;46.66;101631.75;5059635;28;20393;-70
2022/07/27 10:12:02;;;;;;;5.72;1.58;;;;;;;21.99;47.72;101630.19;5053862;28;20044;-69
2022/07/27 10:14:30;;;;;;;4.53;1.40;;;;;;;22.12;47.85;101627.34;5060594;28;20061;-72
2022/07/27 10:16:57;;;;;;;12.35;2.17;;;;;;;22.32;47.94;101619.38;5064429;28;20494;-70
2022/07/27 10:19:30;;;;;;;8.23;1.50;;;;;;;22.62;47.26;101621.56;5068275;28;20048;-71
2022/07/27 10:21:57;;;;;;;7.55;1.85;;;;;;;22.98;47.29;101612.56;5065091;28;20132;-70
2022/07/27 10:24:27;;;;;;;3.47;1.35;;;;;;;23.31;45.99;101622.16;5057389;28;20063;-69
2022/07/27 10:26:54;;;;;;;4.35;1.27;;;;;;;23.33;44.97;101617.66;5064241;28;20071;-71
2022/07/27 10:29:23;;;;;;;6.68;1.50;;;;;;;23.28;44.42;101615.41;5057605;28;20490;-70
2022/07/27 10:31:52;;;;;;;3.22;1.00;;;;;;;23.29;45.28;101611.34;5044150;28;20140;-73
2022/07/27 10:34:37;;;;;;;3.67;1.30;;;;;;;23.23;44.31;101621.66;5035695;28;20142;-72
2022/07/27 10:37:11;;;;;;;4.38;1.52;;;;;;;22.74;42.58;101620.69;5031238;28;20049;-72
2022/07/27 10:40:32;;;;;;;6.50;1.42;;;;;;;22.73;42.90;101621.94;5036319;28;20052;-73
2022/07/27 10:42:39;;;;;;;3.03;0.93;;;;;;;22.75;44.40;101630.75;5042552;28;20063;-73
2022/07/27 10:45:14;;;;;;;3.55;1.20;;;;;;;22.59;45.84;101630.94;5039433;28;20086;-74
2022/07/27 10:47:43;;;;;;;;;;;;;;;22.35;45.93;101629.75;5034382;28;20477;-72
2022/07/27 10:50:16;;;;;;;3.05;1.00;;;;;;;22.19;47.45;101641.97;5034978;28;19924;-73
2022/07/27 10:53:02;;;;;;;4.72;1.40;;;;;;;22.15;46.92;101643.34;5031499;28;20166;-72
2022/07/27 10:55:29;;;;;;;6.57;1.30;;;;;;;22.16;48.31;101642.09;5043391;28;20052;-73
2022/07/27 10:58:01;;;;;;;4.75;1.60;;;;;;;22.22;48.36;101640.28;5029374;28;20573;-73
2022/07/27 11:00:50;;;;;;;7.53;1.40;;;;;;;22.22;47.58;101632.63;5034140;28;20053;-73
2022/07/27 11:03:25;;;;;;;10.02;3.05;;;;;;;22.36;48.32;101639.78;5027166;28;20163;-76
2022/07/27 11:06:18;;;;;;;4.75;1.40;;;;;;;22.44;47.68;101644.72;5034069;28;20369;-73
2022/07/27 11:09:00;;;;;;;4.72;1.45;;;;;;;22.58;47.76;101635.00;5035389;28;20048;-73
2022/07/27 11:11:51;;;;;;;6.57;1.38;;;;;;;22.44;47.19;101627.00;5042566;28;20880;-72
2022/07/27 11:14:18;;;;;;;7.68;1.58;;;;;;;22.52;47.94;101637.59;5034457;28;20057;-72
2022/07/27 11:16:58;;;;;;;4.95;1.17;;;;;;;22.36;48.04;101628.50;5037300;28;20048;-72
2022/07/27 11:19:51;;;;;;;6.15;1.50;;;;;;;22.31;48.29;101637.56;5032345;28;20057;-71
2022/07/27 11:22:30;;;;;;;8.80;1.88;;;;;;;22.44;46.76;101633.44;5033337;28;20059;-73
2022/07/27 11:25:17;;;;;;;9.05;1.73;;;;;;;22.69;47.45;101626.94;5029546;28;20095;-73
2022/07/27 11:27:50;;;;;;;7.85;1.60;;;;;;;22.78;46.94;101627.00;5031103;28;20060;-73
2022/07/27 11:30:21;;;;;;;5.47;1.45;;;;;;;23.03;46.05;101631.69;5036430;28;20044;-73
2022/07/27 11:32:48;;;;;;;6.63;1.83;;;;;;;23.20;45.29;101622.56;5039456;28;20682;-73